Flight Track Log - Related Links

Times and Time Zones

All times are in EDT time to prevent confusion due to time zone crossing. See the N775NC flight status page for this flight to view local times or setup timezone preferences in your user account.

Time Position Orientation Groundspeed Altitude Reporting Facility
EDT Latitude Longitude Course Direction KTS MPH feet Rate Location/Type
Thu 04:19:32 PM 33.6558 -84.4756 288° West 409 471 2,500  Level Atlanta Center
Thu 04:20:32 PM 33.6825 -84.5531 292° West 323 372 5,700 3,300 Climbing Atlanta Center
Thu 04:21:32 PM 33.6800 -84.6306 268° West 237 273 9,100 2,700 Climbing Atlanta Center
Thu 04:22:32 PM 33.6778 -84.7028 268° West 244 281 11,100 1,950 Climbing Atlanta Center
Thu 04:23:32 PM 33.6708 -84.7950 265° West 267 307 13,000 2,150 Climbing Atlanta Center
Thu 04:24:00 PM 33.8832 -84.9915 288° West  Level Estimated
Thu 04:24:32 PM 33.6661 -84.8925 267° West 287 330 15,400  Level Atlanta Center
Thu 04:25:32 PM 33.6842 -84.9900 283° West 292 336 17,500 1,500 Climbing Atlanta Center
Thu 04:26:32 PM 33.7000 -85.0925 281° West 304 350 18,400 1,150 Climbing Atlanta Center
Thu 04:27:32 PM 33.7197 -85.2178 281° West 330 380 19,800 1,400 Climbing Atlanta Center
Thu 04:28:32 PM 33.7414 -85.3378 282° West 359 413 21,200 1,100 Climbing Atlanta Center
Thu 04:29:32 PM 33.8008 -85.4386 305° West 364 419 22,000 400 Climbing Atlanta Center
Thu 04:30:32 PM 33.8728 -85.5400 311° West 390 449 22,000  Level Atlanta Center
Thu 04:31:32 PM 33.9508 -85.6314 316° Northwest 395 455 22,000 -100 Level Atlanta Center
Thu 04:32:32 PM 34.0311 -85.7183 318° Northwest 395 455 21,800 -1,319 Descending Atlanta Center
Thu 04:34:34 PM 34.1769 -85.8658 320° Northwest 350 403 18,000 -2,011 Descending Memphis Center
Thu 04:35:34 PM 34.2425 -85.9453 315° West 337 388 15,700 -2,050 Descending Memphis Center
Thu 04:36:34 PM 34.3136 -86.0144 321° Northwest 331 381 13,900 -1,750 Descending Memphis Center
Thu 04:37:34 PM 34.3831 -86.0864 319° Northwest 325 374 12,200 -1,500 Descending Memphis Center
Thu 04:38:34 PM 34.4439 -86.1564 317° Northwest 319 367 10,900 -600 Descending Memphis Center
Thu 04:39:34 PM 34.5006 -86.2292 313° West 314 361 11,000 -350 Climbing Memphis Center
Thu 04:40:34 PM 34.5053 -86.3122 274° West 272 313 10,200 -1,300 Descending Memphis Center
Thu 04:41:34 PM 34.4956 -86.3958 262° West 250 288 8,400 -1,800 Descending Memphis Center
Thu 04:42:34 PM 34.4856 -86.4744 261° West 244 281 6,600 -2,000 Descending Memphis Center
Thu 04:43:34 PM 34.4839 -86.5550 269° West 244 281 4,400 -1,700 Descending Memphis Center
Thu 04:44:34 PM 34.4906 -86.6378 276° West 244 281 3,200 -700 Descending Memphis Center
Thu 04:45:34 PM 34.4969 -86.7208 275° West 244 281 3,000 -350 Descending Memphis Center
Thu 04:46:34 PM 34.5197 -86.7828 294° West 244 281 2,500 -700 Descending Memphis Center
Thu 04:47:34 PM 34.5700 -86.7883 355° North 169 194 1,600 -800 Descending Memphis Center
Thu 04:48:34 PM 34.6053 -86.7867 North 142 163 900 -450 Descending Memphis Center
Thu 04:49:34 PM 34.6478 -86.8128 333° Northwest 142 163 700 -200 Descending Memphis Center

Login

Don't have an account? Register now (free) for customized features, flight alerts, and more!